Time;durP1;ratioP1;P1;durP2;ratioP2;P2;SDS_P1;SDS_P2;PMS_P1;PMS_P2;Temp;Humidity;BMP_temperature;BMP_pressure;BME280_temperature;BME280_humidity;BME280_pressure;Samples;Min_cycle;Max_cycle;Signal;HPM_P1;HPM_P2
2021/07/05 00:00:40;;;;;;;8.63;5.18;;;;;;;18.27;67.24;98924.00;4879388;29;20369;-69
2021/07/05 00:03:09;;;;;;;7.43;5.10;;;;;;;18.21;67.57;98921.66;4878227;29;20063;-69
2021/07/05 00:05:38;;;;;;;9.53;6.17;;;;;;;18.14;67.81;98919.44;4877319;29;20288;-70
2021/07/05 00:08:09;;;;;;;9.02;5.35;;;;;;;18.20;67.84;98921.75;4865521;29;20579;-69
2021/07/05 00:10:38;;;;;;;8.73;5.63;;;;;;;18.21;67.67;98929.41;4876475;29;20041;-69
2021/07/05 00:13:07;;;;;;;7.20;5.35;;;;;;;18.18;67.99;98932.16;4877502;29;20040;-69
2021/07/05 00:15:36;;;;;;;7.10;5.05;;;;;;;18.18;67.59;98934.75;4878455;29;20041;-71
2021/07/05 00:18:08;;;;;;;7.75;5.43;;;;;;;18.16;68.10;98936.56;4876624;29;20048;-69
2021/07/05 00:20:40;;;;;;;6.95;5.45;;;;;;;18.17;68.05;98937.38;4876911;29;20045;-70
2021/07/05 00:23:11;;;;;;;10.75;5.47;;;;;;;18.19;67.92;98930.41;4877151;29;20037;-70
2021/07/05 00:25:41;;;;;;;8.55;5.38;;;;;;;18.14;67.81;98933.16;4869565;29;20131;-69
2021/07/05 00:28:11;;;;;;;8.00;5.40;;;;;;;18.13;67.93;98935.84;4878679;29;20396;-69
2021/07/05 00:30:41;;;;;;;7.53;5.35;;;;;;;18.15;67.85;98934.84;4878839;29;20452;-69
2021/07/05 00:33:10;;;;;;;7.70;5.50;;;;;;;18.14;67.94;98935.75;4875355;29;20449;-69
2021/07/05 00:35:39;;;;;;;;;;;;;;;18.14;67.72;98937.53;4877629;29;20060;-70
2021/07/05 00:38:10;;;;;;;8.00;5.10;;;;;;;18.09;68.03;98935.13;4872420;29;20034;-69
2021/07/05 00:40:39;;;;;;;6.95;5.15;;;;;;;18.13;67.74;98936.69;4878349;29;20052;-68
2021/07/05 00:43:08;;;;;;;9.32;5.35;;;;;;;17.99;68.22;98933.84;4879952;29;20041;-69
2021/07/05 00:45:37;;;;;;;7.77;5.33;;;;;;;17.93;68.47;98934.94;4877722;29;20093;-69
2021/07/05 00:48:06;;;;;;;8.00;5.43;;;;;;;17.84;69.09;98929.31;4879932;29;20307;-70
2021/07/05 00:50:36;;;;;;;7.07;5.38;;;;;;;17.85;69.18;98926.66;4879675;29;20308;-69
2021/07/05 00:53:06;;;;;;;8.18;5.70;;;;;;;17.94;69.44;98928.03;4878869;29;20045;-69
2021/07/05 00:55:36;;;;;;;6.82;4.70;;;;;;;17.93;69.54;98928.94;4875905;29;20045;-69
2021/07/05 00:58:06;;;;;;;6.97;4.80;;;;;;;17.87;69.69;98936.94;4880203;29;20052;-69
2021/07/05 01:00:35;;;;;;;7.13;5.10;;;;;;;17.91;69.83;98935.91;4882723;29;20567;-69
2021/07/05 01:03:04;;;;;;;7.57;5.57;;;;;;;17.98;69.53;98938.16;4880347;29;20067;-69
2021/07/05 01:05:34;;;;;;;6.85;4.78;;;;;;;18.02;69.05;98936.28;4878346;29;20474;-69
2021/07/05 01:08:03;;;;;;;7.63;5.38;;;;;;;18.11;68.89;98938.50;4879083;29;20033;-69
2021/07/05 01:10:32;;;;;;;;;;;;;;;18.18;68.40;98939.91;4877550;29;20137;-69
2021/07/05 01:13:03;;;;;;;9.00;5.40;;;;;;;18.18;68.32;98939.06;4879305;29;19924;-69
2021/07/05 01:15:33;;;;;;;7.93;5.10;;;;;;;18.19;68.27;98941.56;4881911;29;20063;-69
2021/07/05 01:18:05;;;;;;;7.80;5.68;;;;;;;18.21;67.99;98950.06;4878051;29;20044;-69
2021/07/05 01:20:36;;;;;;;7.75;5.20;;;;;;;18.19;68.08;98945.91;4879390;29;20135;-69
2021/07/05 01:23:09;;;;;;;7.82;5.30;;;;;;;18.20;67.94;98938.09;4880750;29;20373;-69
2021/07/05 01:25:39;;;;;;;7.07;5.18;;;;;;;18.27;67.81;98944.66;4879091;29;20480;-70
2021/07/05 01:28:10;;;;;;;6.88;4.80;;;;;;;18.23;68.10;98942.28;4876783;29;20051;-69
2021/07/05 01:30:41;;;;;;;8.50;5.68;;;;;;;18.28;67.99;98937.75;4880688;29;20049;-69
2021/07/05 01:33:11;;;;;;;7.35;5.32;;;;;;;18.33;68.02;98936.63;4881231;29;20567;-69
2021/07/05 01:35:40;;;;;;;7.78;5.18;;;;;;;18.31;68.16;98935.03;4878356;29;20048;-72
2021/07/05 01:38:12;;;;;;;8.55;5.05;;;;;;;18.27;68.16;98944.66;4874969;29;20075;-70
2021/07/05 01:40:43;;;;;;;6.78;5.18;;;;;;;18.28;68.22;98946.34;4872192;29;20064;-70
2021/07/05 01:43:13;;;;;;;7.60;5.35;;;;;;;18.30;68.06;98949.69;4878672;29;20401;-69
2021/07/05 01:45:42;;;;;;;;;;;;;;;18.36;68.05;98956.31;4882846;29;20045;-69
2021/07/05 01:48:11;;;;;;;7.35;5.28;;;;;;;18.31;68.06;98961.69;4878827;29;19923;-69
2021/07/05 01:50:40;;;;;;;8.85;5.63;;;;;;;18.34;68.35;98961.56;4879510;29;20397;-69
2021/07/05 01:53:09;;;;;;;8.05;5.38;;;;;;;18.37;68.45;98956.28;4881337;29;20463;-70
2021/07/05 01:55:40;;;;;;;9.25;5.47;;;;;;;18.37;68.35;98961.44;4883868;29;20129;-69
2021/07/05 01:58:09;;;;;;;8.63;5.22;;;;;;;18.41;68.11;98962.13;4886945;29;20045;-69
2021/07/05 02:00:40;;;;;;;;;;;;;;;18.44;68.14;98964.59;4880287;29;20052;-69
2021/07/05 02:03:10;;;;;;;7.05;5.20;;;;;;;18.41;68.08;98952.66;4879157;29;20018;-71
2021/07/05 02:05:39;;;;;;;7.50;5.35;;;;;;;18.43;68.00;98961.16;4878823;29;20418;-69
2021/07/05 02:08:08;;;;;;;7.80;5.68;;;;;;;18.44;68.20;98960.28;4879247;29;20068;-69
2021/07/05 02:10:40;;;;;;;10.88;5.45;;;;;;;18.50;67.78;98962.59;4880214;29;20124;-69
2021/07/05 02:13:12;;;;;;;8.23;5.00;;;;;;;18.48;68.07;98963.56;4880422;29;20033;-71
2021/07/05 02:15:42;;;;;;;9.48;5.55;;;;;;;18.34;68.52;98968.47;4881908;29;20069;-69
2021/07/05 02:18:13;;;;;;;8.20;5.50;;;;;;;18.18;69.15;98957.97;4879951;29;20041;-68
2021/07/05 02:20:43;;;;;;;10.65;5.00;;;;;;;18.23;69.44;98963.78;4880418;29;20044;-69
2021/07/05 02:23:16;;;;;;;7.60;5.43;;;;;;;18.17;69.43;98971.78;4879245;29;20045;-70
2021/07/05 02:25:46;;;;;;;10.32;5.88;;;;;;;18.17;70.07;98969.22;4877894;29;20076;-69
2021/07/05 02:28:18;;;;;;;8.63;5.78;;;;;;;18.18;70.39;98970.91;4879738;29;20045;-69
2021/07/05 02:30:48;;;;;;;7.97;5.75;;;;;;;18.22;70.13;98974.16;4879735;29;20053;-69
2021/07/05 02:33:20;;;;;;;7.63;5.47;;;;;;;18.29;69.79;98979.00;4880642;29;20083;-69
2021/07/05 02:35:49;;;;;;;7.93;5.82;;;;;;;18.38;69.62;98975.22;4878906;29;20124;-69
2021/07/05 02:38:19;;;;;;;8.77;5.30;;;;;;;18.46;69.17;98976.56;4877264;29;20037;-70
2021/07/05 02:40:54;;;;;;;8.50;6.15;;;;;;;18.54;68.79;98973.66;4874359;29;20476;-69
2021/07/05 02:43:24;;;;;;;7.47;5.40;;;;;;;18.57;68.86;98974.34;4880470;29;20143;-69
2021/07/05 02:45:55;;;;;;;8.98;5.75;;;;;;;18.61;68.95;98975.06;4880570;29;20080;-69
2021/07/05 02:48:25;;;;;;;8.48;5.78;;;;;;;18.64;68.86;98980.91;4878089;29;20715;-69
2021/07/05 02:50:58;;;;;;;7.20;5.47;;;;;;;18.72;68.57;98978.84;4880539;29;20053;-69
2021/07/05 02:53:27;;;;;;;8.68;5.80;;;;;;;18.77;68.66;98990.72;4875532;29;20052;-69
2021/07/05 02:55:58;;;;;;;8.20;6.10;;;;;;;18.80;68.28;98988.00;4878326;29;20155;-70
2021/07/05 02:58:27;;;;;;;9.10;5.55;;;;;;;18.83;67.94;98990.44;4874555;29;20411;-69
2021/07/05 03:00:59;;;;;;;9.13;6.13;;;;;;;18.86;67.70;98991.13;4880857;29;20073;-69
2021/07/05 03:03:28;;;;;;;7.60;5.50;;;;;;;18.82;67.63;98999.94;4876205;29;20416;-69
2021/07/05 03:05:58;;;;;;;10.05;6.10;;;;;;;18.84;67.52;98992.09;4878430;29;20037;-69
2021/07/05 03:08:27;;;;;;;8.23;5.63;;;;;;;18.87;67.55;98997.16;4875811;29;20460;-69
2021/07/05 03:10:57;;;;;;;7.82;5.53;;;;;;;18.86;67.59;98996.31;4878397;29;20033;-69
2021/07/05 03:13:26;;;;;;;8.88;5.35;;;;;;;18.73;68.13;98996.03;4880145;29;20069;-69
2021/07/05 03:15:56;;;;;;;12.30;5.82;;;;;;;18.64;68.73;99006.78;4872478;29;20449;-69
2021/07/05 03:18:25;;;;;;;8.70;5.57;;;;;;;18.61;69.21;99012.09;4878175;29;20152;-69
2021/07/05 03:20:54;;;;;;;8.15;5.68;;;;;;;18.54;69.71;99005.53;4880509;29;20037;-69
2021/07/05 03:23:25;;;;;;;7.57;5.75;;;;;;;18.56;69.79;99014.03;4876482;29;20120;-69
2021/07/05 03:25:54;;;;;;;10.75;5.50;;;;;;;18.65;69.75;99003.28;4874581;29;20049;-70
2021/07/05 03:28:24;;;;;;;7.90;5.43;;;;;;;18.71;69.17;99008.16;4878701;29;20045;-69
2021/07/05 03:30:55;;;;;;;9.15;5.78;;;;;;;18.74;68.84;99018.38;4878484;29;20056;-69
2021/07/05 03:33:24;;;;;;;8.13;5.63;;;;;;;18.77;68.49;99011.41;4878251;29;20060;-69
2021/07/05 03:35:53;;;;;;;8.63;5.88;;;;;;;18.79;68.43;99014.78;4876117;29;20051;-69
2021/07/05 03:38:22;;;;;;;8.97;6.17;;;;;;;18.78;68.17;99013.09;4877410;29;21508;-70
2021/07/05 03:40:52;;;;;;;7.65;5.60;;;;;;;18.82;68.27;99020.63;4879570;29;20303;-69
2021/07/05 03:43:21;;;;;;;7.18;5.15;;;;;;;18.85;68.19;99017.06;4876399;29;20072;-70
2021/07/05 03:45:51;;;;;;;7.63;5.40;;;;;;;18.86;68.20;99021.34;4878584;29;20457;-68
2021/07/05 03:48:20;;;;;;;7.30;5.32;;;;;;;18.89;67.93;99016.88;4878301;29;20052;-69
2021/07/05 03:50:49;;;;;;;8.17;5.70;;;;;;;18.93;67.88;99017.59;4877969;29;20079;-69
2021/07/05 03:53:18;;;;;;;8.35;5.97;;;;;;;18.93;67.93;99012.41;4868536;29;20292;-69
2021/07/05 03:55:47;;;;;;;9.17;6.03;;;;;;;18.97;68.02;99024.28;4872844;29;20084;-69
2021/07/05 03:58:17;;;;;;;9.07;5.75;;;;;;;18.98;67.42;99026.78;4879078;29;20566;-69
2021/07/05 04:00:46;;;;;;;8.73;5.85;;;;;;;19.01;67.88;99029.25;4878609;29;20045;-69
2021/07/05 04:03:17;;;;;;;8.60;5.70;;;;;;;19.04;67.78;99025.69;4872961;29;20050;-70
2021/07/05 04:05:47;;;;;;;8.45;6.43;;;;;;;19.03;67.95;99030.00;4877132;29;20044;-69
2021/07/05 04:08:16;;;;;;;8.65;5.60;;;;;;;18.99;68.60;99035.41;4876012;29;20492;-69
2021/07/05 04:10:45;;;;;;;7.47;5.40;;;;;;;19.06;68.53;99034.22;4874838;29;20132;-69
2021/07/05 04:13:15;;;;;;;8.07;5.55;;;;;;;19.11;68.39;99037.44;4875624;29;20392;-69
2021/07/05 04:15:44;;;;;;;8.10;5.47;;;;;;;19.05;68.69;99033.34;4877510;29;20381;-69
2021/07/05 04:18:13;;;;;;;11.98;5.70;;;;;;;19.09;68.98;99034.06;4875014;29;20041;-69
2021/07/05 04:20:44;;;;;;;9.02;5.75;;;;;;;19.09;69.25;99034.06;4871306;29;20045;-69
2021/07/05 04:23:13;;;;;;;9.48;5.45;;;;;;;19.14;69.35;99027.78;4880445;29;20041;-73
2021/07/05 04:25:43;;;;;;;7.00;5.28;;;;;;;19.28;68.57;99034.91;4880016;29;20052;-69
2021/07/05 04:28:12;;;;;;;7.82;5.07;;;;;;;19.34;68.25;99029.44;4880848;29;20044;-70
2021/07/05 04:30:40;;;;;;;8.63;5.65;;;;;;;19.47;67.95;99025.41;4883668;29;20105;-69
2021/07/05 04:33:10;;;;;;;7.93;5.72;;;;;;;19.56;68.04;99024.97;4880427;29;20069;-69
2021/07/05 04:35:39;;;;;;;8.05;5.40;;;;;;;19.64;67.78;99022.88;4880259;29;20033;-69
2021/07/05 04:38:09;;;;;;;9.80;5.75;;;;;;;19.77;67.10;99013.56;4876872;29;20048;-69
2021/07/05 04:40:40;;;;;;;9.15;5.65;;;;;;;19.85;66.60;99016.63;4881617;29;20061;-69
2021/07/05 04:43:11;;;;;;;7.40;5.28;;;;;;;19.92;65.75;99020.59;4880908;29;20041;-69
2021/07/05 04:45:43;;;;;;;9.32;5.70;;;;;;;19.99;65.40;99029.75;4880618;29;20396;-69
2021/07/05 04:48:13;;;;;;;9.13;5.78;;;;;;;20.06;65.69;99022.50;4880007;29;20046;-69
2021/07/05 04:50:42;;;;;;;7.78;5.05;;;;;;;20.13;65.12;99025.66;4881374;29;20120;-69
2021/07/05 04:53:12;;;;;;;9.63;5.85;;;;;;;20.15;64.77;99023.81;4881472;29;20060;-69
2021/07/05 04:55:42;;;;;;;8.50;6.00;;;;;;;20.12;64.37;99018.78;4869498;29;20033;-69
2021/07/05 04:58:11;;;;;;;9.50;5.90;;;;;;;20.11;63.99;99022.31;4877222;29;20124;-69
2021/07/05 05:00:40;;;;;;;8.80;5.80;;;;;;;20.14;63.79;99017.78;4880347;29;20041;-69
2021/07/05 05:03:09;;;;;;;10.02;6.35;;;;;;;20.15;63.36;99022.06;4881734;29;20061;-69
2021/07/05 05:05:40;;;;;;;9.02;5.88;;;;;;;20.22;63.29;99020.88;4878877;29;20057;-69
2021/07/05 05:08:09;;;;;;;8.23;5.68;;;;;;;20.29;63.22;99022.25;4877119;29;20045;-69
2021/07/05 05:10:42;;;;;;;8.02;5.88;;;;;;;20.44;63.09;99020.63;4877532;29;20052;-69
2021/07/05 05:13:12;;;;;;;7.80;5.80;;;;;;;20.71;62.81;99025.19;4870234;29;20045;-69
2021/07/05 05:15:41;;;;;;;8.93;6.38;;;;;;;21.02;62.22;99029.59;4876674;29;20037;-68
2021/07/05 05:18:10;;;;;;;8.40;5.65;;;;;;;21.20;61.76;99028.66;4881556;29;20041;-69
2021/07/05 05:20:39;;;;;;;12.35;6.75;;;;;;;21.48;61.54;99027.13;4881048;29;20083;-69
2021/07/05 05:23:09;;;;;;;11.00;6.25;;;;;;;21.68;60.73;99024.28;4878321;29;20045;-69
2021/07/05 05:25:39;;;;;;;9.02;6.35;;;;;;;21.74;60.42;99023.94;4878913;29;20080;-69
2021/07/05 05:28:08;;;;;;;10.90;6.28;;;;;;;21.79;59.98;99032.28;4879069;29;20045;-73
2021/07/05 05:30:37;;;;;;;11.23;6.32;;;;;;;21.90;60.02;99023.00;4877017;29;20069;-70
2021/07/05 05:33:06;;;;;;;10.18;6.65;;;;;;;22.01;59.86;99028.41;4882085;29;20053;-67
2021/07/05 05:35:35;;;;;;;10.57;7.05;;;;;;;22.15;59.85;99032.81;4876056;29;20128;-68
2021/07/05 05:38:05;;;;;;;10.40;6.93;;;;;;;22.34;59.77;99036.00;4878453;29;20064;-69
2021/07/05 05:40:34;;;;;;;11.23;7.38;;;;;;;22.26;59.29;99040.84;4880155;29;20131;-68
2021/07/05 05:43:08;;;;;;;;;;;;;;;22.25;59.38;99041.75;4878942;29;20514;-68
2021/07/05 05:45:37;;;;;;;10.75;6.70;;;;;;;22.44;59.07;99044.94;4876093;29;19924;-70
2021/07/05 05:48:07;;;;;;;11.93;6.70;;;;;;;22.58;58.87;99052.75;4876944;29;20033;-68
2021/07/05 05:50:36;;;;;;;12.25;6.95;;;;;;;22.69;58.52;99054.78;4880491;29;20042;-68
2021/07/05 05:53:06;;;;;;;10.40;6.15;;;;;;;22.74;58.33;99054.50;4880628;29;20503;-67
2021/07/05 05:55:35;;;;;;;10.07;6.70;;;;;;;22.81;57.64;99063.59;4879469;29;20045;-69
2021/07/05 05:58:05;;;;;;;11.63;7.32;;;;;;;22.51;58.04;99059.25;4873950;29;20430;-70
2021/07/05 06:00:34;;;;;;;10.68;6.72;;;;;;;22.42;58.40;99056.38;4876884;29;20109;-69
2021/07/05 06:03:03;;;;;;;12.15;6.93;;;;;;;22.58;58.19;99063.16;4879096;29;20052;-68
2021/07/05 06:05:32;;;;;;;10.13;6.30;;;;;;;22.73;58.49;99063.22;4880034;29;20097;-69
2021/07/05 06:08:01;;;;;;;10.77;6.35;;;;;;;22.93;58.19;99066.31;4873790;29;20045;-68
2021/07/05 06:10:30;;;;;;;11.18;6.82;;;;;;;23.26;57.23;99064.22;4879420;29;20124;-69
2021/07/05 06:12:59;;;;;;;10.20;6.65;;;;;;;23.43;56.36;99058.00;4879693;29;20130;-68
2021/07/05 06:15:30;;;;;;;10.75;6.63;;;;;;;23.53;55.68;99059.09;4879420;29;20045;-67
2021/07/05 06:18:01;;;;;;;10.77;6.72;;;;;;;23.53;55.53;99064.31;4877852;29;20519;-68
2021/07/05 06:20:30;;;;;;;9.23;6.10;;;;;;;23.73;56.02;99063.84;4879600;29;20168;-68
2021/07/05 06:23:17;;;;;;;8.60;5.78;;;;;;;23.94;55.09;99067.72;4868363;29;20063;-68
2021/07/05 06:25:47;;;;;;;8.33;5.87;;;;;;;23.95;54.64;99064.16;4866616;29;20041;-68
2021/07/05 06:28:17;;;;;;;8.52;5.65;;;;;;;24.06;53.79;99071.28;4879633;29;20382;-68
2021/07/05 06:30:49;;;;;;;8.10;5.80;;;;;;;24.21;53.20;99079.91;4881124;29;20078;-68
2021/07/05 06:33:20;;;;;;;8.38;5.82;;;;;;;24.42;52.41;99074.09;4881546;29;20052;-67
2021/07/05 06:35:49;;;;;;;8.73;5.70;;;;;;;24.60;51.92;99085.06;4881472;29;20049;-68
2021/07/05 06:38:20;;;;;;;8.40;5.25;;;;;;;24.82;51.10;99077.47;4878339;29;20041;-67
2021/07/05 06:40:52;;;;;;;9.82;5.88;;;;;;;25.00;50.38;99075.38;4878493;29;20052;-67
2021/07/05 06:43:21;;;;;;;15.15;6.30;;;;;;;25.19;50.00;99076.59;4881258;29;20057;-67
2021/07/05 06:46:10;;;;;;;10.23;5.65;;;;;;;25.30;49.76;99074.06;4877761;29;20033;-66
2021/07/05 06:48:41;;;;;;;7.68;5.97;;;;;;;25.38;49.64;99076.16;4879055;29;20060;-67
2021/07/05 06:51:10;;;;;;;6.60;5.20;;;;;;;25.35;49.26;99080.75;4868396;29;20106;-70
2021/07/05 06:53:39;;;;;;;10.95;5.10;;;;;;;25.09;48.35;99086.03;4900066;29;20565;-66
2021/07/05 06:56:08;;;;;;;7.10;5.20;;;;;;;25.15;47.65;99080.38;4899701;29;20041;-65
2021/07/05 06:58:37;;;;;;;6.78;4.65;;;;;;;25.15;47.53;99075.16;4886467;29;20468;-67
2021/07/05 07:01:11;;;;;;;6.97;4.72;;;;;;;25.42;47.40;99079.38;4881185;29;20049;-67
2021/07/05 07:03:44;;;;;;;6.60;4.53;;;;;;;25.40;48.03;99073.41;4878421;29;20081;-69
2021/07/05 07:06:17;;;;;;;7.32;4.95;;;;;;;25.25;48.90;99086.63;4862588;29;20060;-68
2021/07/05 07:08:46;;;;;;;8.75;5.15;;;;;;;24.92;49.49;99081.13;4873693;29;20065;-68
2021/07/05 07:11:20;;;;;;;8.32;5.22;;;;;;;24.86;50.01;99084.16;4878980;29;20551;-68
2021/07/05 07:13:50;;;;;;;6.93;4.95;;;;;;;24.70;50.69;99078.28;4873984;29;20495;-66
2021/07/05 07:16:22;;;;;;;8.18;5.05;;;;;;;24.69;50.84;99083.63;4879549;29;20037;-67
2021/07/05 07:21:31;;;;;;;7.07;4.67;;;;;;;25.16;48.89;99087.28;4876657;29;20132;-67
2021/07/05 07:24:00;;;;;;;5.95;4.20;;;;;;;25.44;47.96;99085.31;4878977;29;20515;-68
2021/07/05 07:26:34;;;;;;;6.45;4.68;;;;;;;25.66;47.40;99090.72;4880737;29;20048;-66
2021/07/05 07:29:04;;;;;;;7.00;4.70;;;;;;;25.70;47.58;99071.25;4879192;29;20088;-68
2021/07/05 07:31:35;;;;;;;7.20;4.57;;;;;;;25.94;46.93;99079.94;4877984;29;20048;-67
2021/07/05 07:34:05;;;;;;;6.85;4.40;;;;;;;26.21;46.72;99083.19;4879167;29;20124;-67
2021/07/05 07:36:34;;;;;;;6.43;4.50;;;;;;;26.47;46.45;99071.59;4880422;29;20045;-68
2021/07/05 07:39:06;;;;;;;6.82;4.70;;;;;;;26.58;45.94;99071.63;4880359;29;20037;-67
2021/07/05 07:41:36;;;;;;;6.38;4.60;;;;;;;26.77;45.16;99067.63;4880288;29;20490;-67
2021/07/05 07:44:05;;;;;;;5.47;4.60;;;;;;;26.88;45.88;99062.38;4879107;29;20407;-68
2021/07/05 07:46:36;;;;;;;6.18;4.60;;;;;;;26.92;45.16;99076.94;4878966;29;20045;-67
2021/07/05 07:49:05;;;;;;;5.70;4.32;;;;;;;26.80;44.86;99064.78;4880437;29;20048;-67
2021/07/05 07:51:34;;;;;;;6.25;4.53;;;;;;;26.80;45.45;99068.25;4877876;29;20037;-67
2021/07/05 07:54:03;;;;;;;6.70;4.75;;;;;;;27.02;45.81;99075.25;4876278;29;20082;-67
2021/07/05 07:56:34;;;;;;;6.97;5.00;;;;;;;27.45;45.40;99078.81;4876633;29;20073;-68
2021/07/05 07:59:04;;;;;;;6.47;4.97;;;;;;;27.64;45.05;99079.00;4875327;29;20503;-68
2021/07/05 08:01:33;;;;;;;8.98;5.07;;;;;;;27.57;45.26;99083.09;4873004;29;20458;-68
2021/07/05 08:04:03;;;;;;;5.90;4.70;;;;;;;27.63;44.68;99082.63;4875161;29;20055;-68
2021/07/05 08:06:32;;;;;;;6.85;5.07;;;;;;;27.62;44.62;99082.72;4876704;29;20053;-68
2021/07/05 08:09:03;;;;;;;6.05;4.70;;;;;;;27.33;44.36;99082.38;4877124;29;20084;-68
2021/07/05 08:11:32;;;;;;;7.20;5.05;;;;;;;27.09;44.50;99092.19;4875604;29;20511;-69
2021/07/05 08:14:02;;;;;;;6.82;4.05;;;;;;;27.01;44.96;99089.31;4878118;29;20826;-68
2021/07/05 08:16:32;;;;;;;5.82;4.68;;;;;;;26.94;45.35;99088.97;4880634;29;20045;-67
2021/07/05 08:19:01;;;;;;;7.05;4.70;;;;;;;26.53;45.97;99094.72;4867076;29;20054;-68
2021/07/05 08:21:36;;;;;;;5.78;4.60;;;;;;;26.37;46.60;99088.13;4876711;29;20051;-69
2021/07/05 08:24:06;;;;;;;7.47;5.22;;;;;;;26.20;47.09;99096.38;4876508;29;20501;-67
2021/07/05 08:26:36;;;;;;;7.18;5.35;;;;;;;26.18;47.54;99098.28;4878806;29;20045;-67
2021/07/05 08:29:06;;;;;;;6.80;4.68;;;;;;;26.21;47.69;99093.66;4876300;29;20399;-68
2021/07/05 08:31:35;;;;;;;6.63;4.85;;;;;;;26.43;47.19;99093.72;4874187;29;20063;-69
2021/07/05 08:34:04;;;;;;;6.40;4.63;;;;;;;26.75;46.79;99088.72;4875535;29;20453;-68
2021/07/05 08:36:40;;;;;;;6.55;5.13;;;;;;;27.00;46.26;99093.72;4879434;29;20057;-67
2021/07/05 08:39:13;;;;;;;8.02;5.20;;;;;;;27.21;46.23;99101.72;4876419;29;20519;-68
2021/07/05 08:41:42;;;;;;;7.85;5.10;;;;;;;27.28;45.77;99097.66;4878708;29;20069;-67
2021/07/05 08:44:12;;;;;;;8.60;5.25;;;;;;;27.34;46.40;99107.66;4872621;29;20132;-68
2021/07/05 08:46:44;;;;;;;6.22;4.57;;;;;;;27.49;46.03;99110.88;4879413;29;20096;-68
2021/07/05 08:49:13;;;;;;;5.78;4.60;;;;;;;27.26;45.72;99110.03;4877758;29;20128;-68
2021/07/05 08:51:44;;;;;;;5.95;4.82;;;;;;;27.22;45.80;99113.84;4878241;29;20084;-67
2021/07/05 08:54:13;;;;;;;6.20;4.70;;;;;;;27.64;46.42;99110.50;4875485;29;20045;-70
2021/07/05 08:56:42;;;;;;;7.32;5.10;;;;;;;28.01;45.54;99112.81;4872297;29;20400;-73
2021/07/05 08:59:11;;;;;;;6.22;4.35;;;;;;;28.36;45.07;99113.41;4873584;29;20144;-67
2021/07/05 09:01:40;;;;;;;7.72;5.13;;;;;;;28.73;44.83;99104.13;4879128;29;20432;-68
2021/07/05 09:04:13;;;;;;;6.38;4.93;;;;;;;28.78;43.85;99091.44;4875975;29;20053;-68
2021/07/05 09:07:04;;;;;;;6.05;5.00;;;;;;;29.01;43.74;99100.81;4879715;29;20053;-68
2021/07/05 09:09:35;;;;;;;6.10;4.72;;;;;;;29.09;43.36;99098.38;4880634;29;20127;-68
2021/07/05 09:12:06;;;;;;;8.18;5.10;;;;;;;29.18;43.37;99092.34;4880717;29;20051;-70
2021/07/05 09:14:37;;;;;;;5.25;4.35;;;;;;;28.78;44.29;99094.06;4879387;29;20113;-68
2021/07/05 09:17:09;;;;;;;6.82;4.85;;;;;;;28.87;43.68;99102.97;4876282;29;20070;-67
2021/07/05 09:19:39;;;;;;;5.45;4.30;;;;;;;29.01;43.01;99095.56;4878845;29;20399;-67
2021/07/05 09:22:10;;;;;;;5.50;4.00;;;;;;;29.50;41.06;99096.59;4881256;29;20120;-70
2021/07/05 09:24:42;;;;;;;6.70;4.07;;;;;;;29.94;41.34;99088.28;4879050;29;20061;-68
2021/07/05 09:27:18;;;;;;;7.15;3.95;;;;;;;29.96;41.05;99091.59;4877484;29;20060;-69
2021/07/05 09:29:48;;;;;;;6.70;4.22;;;;;;;29.98;40.64;99089.66;4879375;29;20033;-68
2021/07/05 09:32:26;;;;;;;6.63;4.18;;;;;;;30.20;39.65;99081.50;4880686;29;20033;-73
2021/07/05 09:34:55;;;;;;;6.47;3.75;;;;;;;30.08;39.61;99068.59;4870291;29;20037;-68
2021/07/05 09:37:32;;;;;;;5.25;3.90;;;;;;;30.08;40.09;99069.44;4881495;29;20056;-68
2021/07/05 09:40:13;;;;;;;6.57;4.45;;;;;;;29.97;39.71;99077.44;4875757;29;20084;-69
2021/07/05 09:42:44;;;;;;;5.10;4.10;;;;;;;29.80;39.80;99067.63;4877177;29;20491;-67
2021/07/05 09:45:15;;;;;;;6.53;4.15;;;;;;;30.03;40.10;99066.38;4872787;29;20132;-68
2021/07/05 09:47:45;;;;;;;5.80;4.38;;;;;;;29.63;39.98;99052.47;4879659;29;20045;-72
2021/07/05 09:50:20;;;;;;;5.95;3.97;;;;;;;29.97;39.75;99059.03;4880004;29;20045;-68
2021/07/05 09:52:53;;;;;;;5.93;4.45;;;;;;;30.16;39.29;99069.56;4878752;29;20499;-67
2021/07/05 09:55:22;;;;;;;5.20;4.00;;;;;;;30.34;39.75;99067.91;4879453;29;20053;-68
2021/07/05 09:57:54;;;;;;;6.35;4.00;;;;;;;30.36;38.86;99055.44;4881018;29;20049;-68
2021/07/05 10:00:25;;;;;;;7.15;4.00;;;;;;;30.44;37.82;99062.63;4872511;29;20053;-67
2021/07/05 10:02:56;;;;;;;4.93;3.70;;;;;;;30.78;38.06;99068.25;4881897;29;20059;-72
2021/07/05 10:05:26;;;;;;;7.40;4.05;;;;;;;31.04;37.77;99064.84;4874468;29;20045;-68
2021/07/05 10:08:01;;;;;;;5.60;4.00;;;;;;;31.34;36.32;99074.25;4879621;29;20492;-67
2021/07/05 10:10:30;;;;;;;5.38;3.70;;;;;;;31.09;36.14;99053.84;4878808;29;20053;-68
2021/07/05 10:13:02;;;;;;;5.07;3.40;;;;;;;31.22;35.55;99059.59;4880576;29;20049;-68
2021/07/05 10:15:32;;;;;;;5.60;3.72;;;;;;;31.35;35.07;99059.28;4878682;29;20496;-68
2021/07/05 10:18:02;;;;;;;5.20;3.78;;;;;;;31.37;35.23;99063.41;4877894;29;20048;-68
2021/07/05 10:20:34;;;;;;;4.90;3.67;;;;;;;30.66;35.81;99064.13;4878229;29;20056;-69
2021/07/05 10:23:08;;;;;;;5.07;3.80;;;;;;;29.91;37.47;99067.50;4875651;29;20045;-69
2021/07/05 10:25:39;;;;;;;5.07;3.60;;;;;;;29.41;38.08;99060.59;4878765;29;20069;-68
2021/07/05 10:28:09;;;;;;;5.22;3.85;;;;;;;29.80;37.92;99067.63;4875857;29;20105;-67
2021/07/05 10:30:39;;;;;;;5.57;4.10;;;;;;;30.39;36.51;99064.84;4880337;29;20072;-67
2021/07/05 10:33:09;;;;;;;4.78;3.42;;;;;;;30.81;36.16;99065.31;4881380;29;20049;-68
2021/07/05 10:35:40;;;;;;;5.93;3.30;;;;;;;30.91;36.00;99066.97;4876029;29;20559;-67
2021/07/05 10:38:16;;;;;;;5.18;3.50;;;;;;;31.14;35.34;99070.06;4874949;29;20468;-67
2021/07/05 10:40:48;;;;;;;5.32;3.53;;;;;;;31.25;35.59;99079.59;4880281;29;20535;-68
2021/07/05 10:43:19;;;;;;;5.68;3.78;;;;;;;31.30;35.31;99064.16;4878740;29;20136;-66
2021/07/05 10:45:50;;;;;;;4.70;3.60;;;;;;;31.39;35.22;99072.03;4877554;29;20492;-67
2021/07/05 10:48:39;;;;;;;4.85;3.53;;;;;;;31.64;35.43;99071.34;4876613;29;20049;-71
2021/07/05 10:51:10;;;;;;;5.93;3.30;;;;;;;32.04;35.67;99070.94;4879389;29;20437;-68
2021/07/05 10:53:55;;;;;;;5.07;3.63;;;;;;;31.84;34.98;99069.41;4877934;29;20041;-70
2021/07/05 10:56:30;;;;;;;5.60;3.75;;;;;;;31.14;35.18;99067.44;4879004;29;20349;-68
2021/07/05 10:59:31;;;;;;;4.05;2.95;;;;;;;31.15;35.16;99074.34;4879651;29;20045;-69
2021/07/05 11:02:00;;;;;;;8.85;3.53;;;;;;;31.31;35.17;99068.47;4876523;29;20076;-68
2021/07/05 11:04:30;;;;;;;5.18;3.60;;;;;;;31.55;35.45;99066.97;4880629;29;20049;-67
2021/07/05 11:07:01;;;;;;;4.50;3.40;;;;;;;31.65;35.21;99062.44;4878031;29;20079;-67
2021/07/05 11:09:32;;;;;;;4.57;3.10;;;;;;;31.76;34.67;99066.69;4879774;29;20441;-67
2021/07/05 11:12:01;;;;;;;4.63;3.42;;;;;;;32.02;33.71;99058.88;4879612;29;20128;-66
2021/07/05 11:14:35;;;;;;;4.78;3.38;;;;;;;32.09;32.88;99070.47;4880723;29;20068;-67
2021/07/05 11:17:10;;;;;;;4.50;3.40;;;;;;;32.30;32.80;99063.88;4878860;29;20053;-68
2021/07/05 11:19:45;;;;;;;5.45;3.83;;;;;;;32.55;32.41;99062.28;4888116;29;20055;-68
2021/07/05 11:22:21;;;;;;;4.55;3.13;;;;;;;32.48;32.70;99061.22;4878543;29;20053;-68
2021/07/05 11:24:54;;;;;;;4.72;3.25;;;;;;;32.37;32.76;99056.19;4878561;29;20914;-68
2021/07/05 11:27:44;;;;;;;7.57;3.22;;;;;;;32.55;32.28;99057.00;4879271;29;20049;-66
2021/07/05 11:30:20;;;;;;;4.75;3.42;;;;;;;32.77;32.11;99061.78;4879899;29;20392;-67
2021/07/05 11:32:51;;;;;;;6.75;3.22;;;;;;;32.89;31.74;99063.16;4879616;29;20420;-67
2021/07/05 11:35:39;;;;;;;5.75;2.90;;;;;;;32.91;31.41;99063.81;4879502;29;20045;-67
2021/07/05 11:38:22;;;;;;;4.15;2.97;;;;;;;32.68;30.79;99054.75;4877920;29;20041;-68
2021/07/05 11:40:55;;;;;;;4.38;2.80;;;;;;;32.34;30.30;99053.84;4873228;29;20073;-66
2021/07/05 11:43:42;;;;;;;4.53;3.00;;;;;;;32.66;30.94;99059.38;4879326;29;20060;-67
2021/07/05 11:46:17;;;;;;;5.70;3.20;;;;;;;32.87;32.29;99057.22;4879193;29;20049;-67
2021/07/05 11:48:57;;;;;;;4.78;3.42;;;;;;;33.13;31.08;99051.91;4876777;29;20063;-67
2021/07/05 11:51:30;;;;;;;4.68;3.53;;;;;;;33.00;30.84;99052.28;4879196;29;20128;-67
2021/07/05 11:54:02;;;;;;;4.80;3.30;;;;;;;33.21;31.03;99054.56;4878722;29;20080;-67